sensor_id;sensor_type;location;lat;lon;timestamp;P1;durP1;ratioP1;P2;durP2;ratioP2
25932;SDS011;13731;51.166;4.474;2023-12-04T00:01:42;53.45;;;41.42;;
25932;SDS011;13731;51.166;4.474;2023-12-04T00:04:15;58.15;;;42.40;;
25932;SDS011;13731;51.166;4.474;2023-12-04T00:09:07;54.92;;;39.33;;
25932;SDS011;13731;51.166;4.474;2023-12-04T00:11:33;53.13;;;39.22;;
25932;SDS011;13731;51.166;4.474;2023-12-04T00:13:59;44.58;;;38.45;;
25932;SDS011;13731;51.166;4.474;2023-12-04T00:16:25;44.83;;;37.97;;
25932;SDS011;13731;51.166;4.474;2023-12-04T00:18:52;43.20;;;38.50;;
25932;SDS011;13731;51.166;4.474;2023-12-04T00:21:17;47.33;;;41.83;;
25932;SDS011;13731;51.166;4.474;2023-12-04T00:23:43;46.78;;;41.85;;
25932;SDS011;13731;51.166;4.474;2023-12-04T00:26:09;45.45;;;40.72;;
25932;SDS011;13731;51.166;4.474;2023-12-04T00:28:35;46.00;;;41.40;;
25932;SDS011;13731;51.166;4.474;2023-12-04T00:31:02;45.03;;;40.63;;
25932;SDS011;13731;51.166;4.474;2023-12-04T00:33:28;45.83;;;40.95;;
25932;SDS011;13731;51.166;4.474;2023-12-04T00:35:54;47.88;;;40.45;;
25932;SDS011;13731;51.166;4.474;2023-12-04T00:38:22;45.10;;;40.33;;
25932;SDS011;13731;51.166;4.474;2023-12-04T00:40:48;41.45;;;37.42;;
25932;SDS011;13731;51.166;4.474;2023-12-04T00:43:14;42.38;;;38.42;;
25932;SDS011;13731;51.166;4.474;2023-12-04T00:45:40;36.65;;;33.40;;
25932;SDS011;13731;51.166;4.474;2023-12-04T00:48:06;36.80;;;33.80;;
25932;SDS011;13731;51.166;4.474;2023-12-04T00:50:32;28.85;;;26.17;;
25932;SDS011;13731;51.166;4.474;2023-12-04T00:52:58;30.27;;;27.38;;
25932;SDS011;13731;51.166;4.474;2023-12-04T00:55:24;29.63;;;27.08;;
25932;SDS011;13731;51.166;4.474;2023-12-04T00:57:50;29.80;;;26.98;;
25932;SDS011;13731;51.166;4.474;2023-12-04T01:00:16;30.15;;;27.38;;
25932;SDS011;13731;51.166;4.474;2023-12-04T01:02:42;26.30;;;24.10;;
25932;SDS011;13731;51.166;4.474;2023-12-04T01:05:08;28.88;;;26.17;;
25932;SDS011;13731;51.166;4.474;2023-12-04T01:07:34;27.52;;;24.75;;
25932;SDS011;13731;51.166;4.474;2023-12-04T01:10:00;26.88;;;24.20;;
25932;SDS011;13731;51.166;4.474;2023-12-04T01:12:26;26.30;;;23.70;;
25932;SDS011;13731;51.166;4.474;2023-12-04T01:14:52;26.20;;;23.80;;
25932;SDS011;13731;51.166;4.474;2023-12-04T01:17:18;25.52;;;23.08;;
25932;SDS011;13731;51.166;4.474;2023-12-04T01:19:44;25.55;;;23.15;;
25932;SDS011;13731;51.166;4.474;2023-12-04T01:22:10;23.95;;;21.80;;
25932;SDS011;13731;51.166;4.474;2023-12-04T01:24:36;24.70;;;22.55;;
25932;SDS011;13731;51.166;4.474;2023-12-04T01:27:02;26.70;;;24.10;;
25932;SDS011;13731;51.166;4.474;2023-12-04T01:29:28;25.35;;;22.98;;
25932;SDS011;13731;51.166;4.474;2023-12-04T01:31:57;23.90;;;21.85;;
25932;SDS011;13731;51.166;4.474;2023-12-04T01:34:22;24.23;;;22.17;;
25932;SDS011;13731;51.166;4.474;2023-12-04T01:36:48;24.85;;;22.45;;
25932;SDS011;13731;51.166;4.474;2023-12-04T01:39:14;26.60;;;24.00;;
25932;SDS011;13731;51.166;4.474;2023-12-04T01:41:40;26.27;;;23.88;;
25932;SDS011;13731;51.166;4.474;2023-12-04T01:44:06;26.33;;;23.98;;
25932;SDS011;13731;51.166;4.474;2023-12-04T01:46:33;27.55;;;24.90;;
25932;SDS011;13731;51.166;4.474;2023-12-04T01:48:59;26.38;;;24.17;;
25932;SDS011;13731;51.166;4.474;2023-12-04T01:51:28;25.17;;;22.83;;
25932;SDS011;13731;51.166;4.474;2023-12-04T01:53:55;26.48;;;23.95;;
25932;SDS011;13731;51.166;4.474;2023-12-04T01:56:25;27.60;;;25.05;;
25932;SDS011;13731;51.166;4.474;2023-12-04T01:58:52;26.35;;;24.17;;
25932;SDS011;13731;51.166;4.474;2023-12-04T02:01:18;28.10;;;25.27;;
25932;SDS011;13731;51.166;4.474;2023-12-04T02:03:45;25.90;;;23.55;;
25932;SDS011;13731;51.166;4.474;2023-12-04T02:06:11;25.85;;;23.38;;
25932;SDS011;13731;51.166;4.474;2023-12-04T02:08:38;26.38;;;24.13;;
25932;SDS011;13731;51.166;4.474;2023-12-04T02:11:06;25.40;;;23.00;;
25932;SDS011;13731;51.166;4.474;2023-12-04T02:13:32;24.92;;;22.52;;
25932;SDS011;13731;51.166;4.474;2023-12-04T02:15:58;24.15;;;22.20;;
25932;SDS011;13731;51.166;4.474;2023-12-04T02:18:31;25.85;;;23.50;;
25932;SDS011;13731;51.166;4.474;2023-12-04T02:21:02;25.70;;;23.13;;
25932;SDS011;13731;51.166;4.474;2023-12-04T02:23:29;29.83;;;27.08;;
25932;SDS011;13731;51.166;4.474;2023-12-04T02:25:57;28.58;;;25.98;;
25932;SDS011;13731;51.166;4.474;2023-12-04T02:28:27;28.20;;;25.75;;
25932;SDS011;13731;51.166;4.474;2023-12-04T02:30:57;28.92;;;26.33;;
25932;SDS011;13731;51.166;4.474;2023-12-04T02:33:25;29.67;;;26.88;;
25932;SDS011;13731;51.166;4.474;2023-12-04T02:35:52;31.00;;;28.17;;
25932;SDS011;13731;51.166;4.474;2023-12-04T02:38:20;32.22;;;29.35;;
25932;SDS011;13731;51.166;4.474;2023-12-04T02:40:47;31.15;;;28.48;;
25932;SDS011;13731;51.166;4.474;2023-12-04T02:43:13;30.45;;;27.98;;
25932;SDS011;13731;51.166;4.474;2023-12-04T02:45:39;34.42;;;31.65;;
25932;SDS011;13731;51.166;4.474;2023-12-04T02:48:07;31.33;;;28.80;;
25932;SDS011;13731;51.166;4.474;2023-12-04T02:50:33;33.13;;;30.50;;
25932;SDS011;13731;51.166;4.474;2023-12-04T02:52:59;29.35;;;27.25;;
25932;SDS011;13731;51.166;4.474;2023-12-04T02:55:25;29.35;;;27.17;;
25932;SDS011;13731;51.166;4.474;2023-12-04T02:57:51;29.70;;;27.42;;
25932;SDS011;13731;51.166;4.474;2023-12-04T03:00:17;30.42;;;28.02;;
25932;SDS011;13731;51.166;4.474;2023-12-04T03:02:43;32.45;;;29.42;;
25932;SDS011;13731;51.166;4.474;2023-12-04T03:05:09;30.77;;;28.20;;
25932;SDS011;13731;51.166;4.474;2023-12-04T03:07:35;31.30;;;29.10;;
25932;SDS011;13731;51.166;4.474;2023-12-04T03:10:01;29.98;;;27.88;;
25932;SDS011;13731;51.166;4.474;2023-12-04T03:12:27;31.10;;;28.83;;
25932;SDS011;13731;51.166;4.474;2023-12-04T03:14:53;30.48;;;27.92;;
25932;SDS011;13731;51.166;4.474;2023-12-04T03:17:20;32.53;;;29.83;;
25932;SDS011;13731;51.166;4.474;2023-12-04T03:19:45;31.00;;;28.90;;
25932;SDS011;13731;51.166;4.474;2023-12-04T03:22:12;30.17;;;28.00;;
25932;SDS011;13731;51.166;4.474;2023-12-04T03:24:38;29.83;;;27.73;;
25932;SDS011;13731;51.166;4.474;2023-12-04T03:27:04;29.10;;;27.05;;
25932;SDS011;13731;51.166;4.474;2023-12-04T03:29:30;30.02;;;27.85;;
25932;SDS011;13731;51.166;4.474;2023-12-04T03:31:56;29.25;;;27.27;;
25932;SDS011;13731;51.166;4.474;2023-12-04T03:34:22;28.52;;;26.63;;
25932;SDS011;13731;51.166;4.474;2023-12-04T03:36:48;29.42;;;27.33;;
25932;SDS011;13731;51.166;4.474;2023-12-04T03:39:14;29.05;;;26.98;;
25932;SDS011;13731;51.166;4.474;2023-12-04T03:41:40;28.98;;;26.88;;
25932;SDS011;13731;51.166;4.474;2023-12-04T03:44:06;27.88;;;25.80;;
25932;SDS011;13731;51.166;4.474;2023-12-04T03:46:32;27.13;;;25.17;;
25932;SDS011;13731;51.166;4.474;2023-12-04T03:48:58;28.17;;;26.08;;
25932;SDS011;13731;51.166;4.474;2023-12-04T03:51:25;25.88;;;24.10;;
25932;SDS011;13731;51.166;4.474;2023-12-04T03:53:50;26.90;;;25.00;;
25932;SDS011;13731;51.166;4.474;2023-12-04T03:56:16;28.13;;;26.13;;
25932;SDS011;13731;51.166;4.474;2023-12-04T03:58:42;28.42;;;26.23;;
25932;SDS011;13731;51.166;4.474;2023-12-04T04:01:08;28.35;;;26.20;;
25932;SDS011;13731;51.166;4.474;2023-12-04T04:03:34;29.63;;;27.50;;
25932;SDS011;13731;51.166;4.474;2023-12-04T04:06:00;27.48;;;25.17;;
25932;SDS011;13731;51.166;4.474;2023-12-04T04:08:26;24.40;;;22.58;;
25932;SDS011;13731;51.166;4.474;2023-12-04T04:10:52;26.58;;;24.27;;
25932;SDS011;13731;51.166;4.474;2023-12-04T04:13:18;26.55;;;24.42;;
25932;SDS011;13731;51.166;4.474;2023-12-04T04:15:44;26.50;;;24.63;;
25932;SDS011;13731;51.166;4.474;2023-12-04T04:18:11;26.83;;;24.63;;
25932;SDS011;13731;51.166;4.474;2023-12-04T04:20:37;25.02;;;23.17;;
25932;SDS011;13731;51.166;4.474;2023-12-04T04:23:03;24.95;;;23.08;;
25932;SDS011;13731;51.166;4.474;2023-12-04T04:25:29;25.05;;;23.10;;
25932;SDS011;13731;51.166;4.474;2023-12-04T04:27:55;24.27;;;22.35;;
25932;SDS011;13731;51.166;4.474;2023-12-04T04:30:21;24.83;;;22.90;;
25932;SDS011;13731;51.166;4.474;2023-12-04T04:32:47;24.30;;;22.50;;
25932;SDS011;13731;51.166;4.474;2023-12-04T04:35:13;25.92;;;23.92;;
25932;SDS011;13731;51.166;4.474;2023-12-04T04:37:39;25.08;;;22.95;;
25932;SDS011;13731;51.166;4.474;2023-12-04T04:40:05;24.35;;;22.55;;
25932;SDS011;13731;51.166;4.474;2023-12-04T04:42:35;23.75;;;21.88;;
25932;SDS011;13731;51.166;4.474;2023-12-04T04:45:00;24.25;;;22.45;;
25932;SDS011;13731;51.166;4.474;2023-12-04T04:47:26;24.23;;;22.38;;
25932;SDS011;13731;51.166;4.474;2023-12-04T04:49:52;23.85;;;22.02;;
25932;SDS011;13731;51.166;4.474;2023-12-04T04:52:18;24.90;;;23.13;;
25932;SDS011;13731;51.166;4.474;2023-12-04T04:54:44;23.80;;;21.98;;
25932;SDS011;13731;51.166;4.474;2023-12-04T04:57:10;23.42;;;21.55;;
25932;SDS011;13731;51.166;4.474;2023-12-04T04:59:36;24.00;;;21.92;;
25932;SDS011;13731;51.166;4.474;2023-12-04T05:02:02;23.52;;;21.63;;
25932;SDS011;13731;51.166;4.474;2023-12-04T05:04:28;23.58;;;21.60;;
25932;SDS011;13731;51.166;4.474;2023-12-04T05:06:54;23.60;;;21.90;;
25932;SDS011;13731;51.166;4.474;2023-12-04T05:09:20;22.67;;;20.88;;
25932;SDS011;13731;51.166;4.474;2023-12-04T05:11:46;23.05;;;21.35;;
25932;SDS011;13731;51.166;4.474;2023-12-04T05:14:12;21.40;;;19.92;;
25932;SDS011;13731;51.166;4.474;2023-12-04T05:16:38;23.05;;;21.23;;
25932;SDS011;13731;51.166;4.474;2023-12-04T05:19:04;23.08;;;21.38;;
25932;SDS011;13731;51.166;4.474;2023-12-04T05:21:31;22.88;;;21.15;;
25932;SDS011;13731;51.166;4.474;2023-12-04T05:23:56;23.88;;;22.02;;
25932;SDS011;13731;51.166;4.474;2023-12-04T05:26:22;22.77;;;21.17;;
25932;SDS011;13731;51.166;4.474;2023-12-04T05:28:48;22.95;;;21.25;;
25932;SDS011;13731;51.166;4.474;2023-12-04T05:31:14;22.40;;;20.70;;
25932;SDS011;13731;51.166;4.474;2023-12-04T05:33:40;23.00;;;21.30;;
25932;SDS011;13731;51.166;4.474;2023-12-04T05:36:06;23.02;;;21.08;;
25932;SDS011;13731;51.166;4.474;2023-12-04T05:38:32;22.20;;;20.73;;
25932;SDS011;13731;51.166;4.474;2023-12-04T05:40:58;22.85;;;21.13;;
25932;SDS011;13731;51.166;4.474;2023-12-04T05:43:25;23.02;;;21.13;;
25932;SDS011;13731;51.166;4.474;2023-12-04T05:45:50;23.25;;;21.35;;
25932;SDS011;13731;51.166;4.474;2023-12-04T05:48:16;24.52;;;22.55;;
25932;SDS011;13731;51.166;4.474;2023-12-04T05:50:42;24.92;;;22.95;;
25932;SDS011;13731;51.166;4.474;2023-12-04T05:53:08;22.73;;;21.02;;
25932;SDS011;13731;51.166;4.474;2023-12-04T05:55:34;23.73;;;22.02;;
25932;SDS011;13731;51.166;4.474;2023-12-04T05:58:00;24.23;;;22.42;;
25932;SDS011;13731;51.166;4.474;2023-12-04T06:00:27;24.48;;;22.77;;
25932;SDS011;13731;51.166;4.474;2023-12-04T06:02:53;23.58;;;21.55;;
25932;SDS011;13731;51.166;4.474;2023-12-04T06:05:19;25.30;;;23.33;;
25932;SDS011;13731;51.166;4.474;2023-12-04T06:07:48;25.13;;;22.92;;
25932;SDS011;13731;51.166;4.474;2023-12-04T06:12:40;25.05;;;23.05;;
25932;SDS011;13731;51.166;4.474;2023-12-04T06:15:06;24.92;;;22.90;;
25932;SDS011;13731;51.166;4.474;2023-12-04T06:17:33;26.02;;;23.75;;
25932;SDS011;13731;51.166;4.474;2023-12-04T06:19:58;23.95;;;22.30;;
25932;SDS011;13731;51.166;4.474;2023-12-04T06:22:25;24.80;;;22.90;;
25932;SDS011;13731;51.166;4.474;2023-12-04T06:24:51;23.42;;;21.67;;
25932;SDS011;13731;51.166;4.474;2023-12-04T06:27:18;24.30;;;22.65;;
25932;SDS011;13731;51.166;4.474;2023-12-04T06:29:45;23.65;;;21.95;;
25932;SDS011;13731;51.166;4.474;2023-12-04T06:32:12;24.70;;;22.80;;
25932;SDS011;13731;51.166;4.474;2023-12-04T06:34:38;25.40;;;23.80;;
25932;SDS011;13731;51.166;4.474;2023-12-04T06:37:14;24.77;;;22.98;;
25932;SDS011;13731;51.166;4.474;2023-12-04T06:39:40;23.50;;;21.58;;
25932;SDS011;13731;51.166;4.474;2023-12-04T06:42:07;22.05;;;20.25;;
25932;SDS011;13731;51.166;4.474;2023-12-04T06:44:35;22.35;;;20.63;;
25932;SDS011;13731;51.166;4.474;2023-12-04T06:47:01;22.23;;;20.75;;
25932;SDS011;13731;51.166;4.474;2023-12-04T06:49:29;22.75;;;21.05;;
25932;SDS011;13731;51.166;4.474;2023-12-04T06:51:58;22.92;;;21.23;;
25932;SDS011;13731;51.166;4.474;2023-12-04T06:54:25;21.20;;;19.70;;
25932;SDS011;13731;51.166;4.474;2023-12-04T06:56:51;22.33;;;20.73;;
25932;SDS011;13731;51.166;4.474;2023-12-04T06:59:18;21.08;;;19.67;;
25932;SDS011;13731;51.166;4.474;2023-12-04T07:01:44;21.73;;;20.17;;
25932;SDS011;13731;51.166;4.474;2023-12-04T07:04:10;22.33;;;20.75;;
25932;SDS011;13731;51.166;4.474;2023-12-04T07:06:36;19.15;;;17.65;;
25932;SDS011;13731;51.166;4.474;2023-12-04T07:09:03;22.15;;;20.65;;
25932;SDS011;13731;51.166;4.474;2023-12-04T07:11:29;22.58;;;21.13;;
25932;SDS011;13731;51.166;4.474;2023-12-04T07:13:56;21.92;;;20.38;;
25932;SDS011;13731;51.166;4.474;2023-12-04T07:16:22;21.80;;;20.10;;
25932;SDS011;13731;51.166;4.474;2023-12-04T07:18:48;24.17;;;22.08;;
25932;SDS011;13731;51.166;4.474;2023-12-04T07:21:14;21.10;;;19.65;;
25932;SDS011;13731;51.166;4.474;2023-12-04T07:23:40;20.02;;;18.52;;
25932;SDS011;13731;51.166;4.474;2023-12-04T07:26:06;21.90;;;20.02;;
25932;SDS011;13731;51.166;4.474;2023-12-04T07:28:32;21.00;;;19.30;;
25932;SDS011;13731;51.166;4.474;2023-12-04T07:30:58;21.42;;;19.83;;
25932;SDS011;13731;51.166;4.474;2023-12-04T07:33:27;18.38;;;17.15;;
25932;SDS011;13731;51.166;4.474;2023-12-04T07:35:53;19.67;;;18.00;;
25932;SDS011;13731;51.166;4.474;2023-12-04T07:38:18;20.02;;;18.63;;
25932;SDS011;13731;51.166;4.474;2023-12-04T07:40:44;20.63;;;19.02;;
25932;SDS011;13731;51.166;4.474;2023-12-04T07:43:10;20.77;;;19.27;;
25932;SDS011;13731;51.166;4.474;2023-12-04T07:45:37;21.85;;;20.35;;
25932;SDS011;13731;51.166;4.474;2023-12-04T07:48:03;22.95;;;21.42;;
25932;SDS011;13731;51.166;4.474;2023-12-04T07:50:29;20.20;;;18.90;;
25932;SDS011;13731;51.166;4.474;2023-12-04T07:52:55;20.55;;;19.23;;
25932;SDS011;13731;51.166;4.474;2023-12-04T07:55:21;20.33;;;18.80;;
25932;SDS011;13731;51.166;4.474;2023-12-04T07:57:47;20.38;;;18.90;;
25932;SDS011;13731;51.166;4.474;2023-12-04T08:00:15;20.65;;;19.10;;
25932;SDS011;13731;51.166;4.474;2023-12-04T08:02:43;21.70;;;20.30;;
25932;SDS011;13731;51.166;4.474;2023-12-04T08:05:11;21.88;;;20.38;;
25932;SDS011;13731;51.166;4.474;2023-12-04T08:07:37;20.73;;;19.17;;
25932;SDS011;13731;51.166;4.474;2023-12-04T08:10:04;21.58;;;19.90;;
25932;SDS011;13731;51.166;4.474;2023-12-04T08:12:33;21.10;;;19.50;;
25932;SDS011;13731;51.166;4.474;2023-12-04T08:14:59;21.05;;;19.55;;
25932;SDS011;13731;51.166;4.474;2023-12-04T08:17:27;22.60;;;21.08;;
25932;SDS011;13731;51.166;4.474;2023-12-04T08:19:52;23.48;;;21.73;;
25932;SDS011;13731;51.166;4.474;2023-12-04T08:22:19;22.80;;;21.35;;
25932;SDS011;13731;51.166;4.474;2023-12-04T08:24:45;22.30;;;20.80;;
25932;SDS011;13731;51.166;4.474;2023-12-04T08:27:11;23.65;;;22.08;;
25932;SDS011;13731;51.166;4.474;2023-12-04T08:29:39;23.65;;;22.08;;
25932;SDS011;13731;51.166;4.474;2023-12-04T08:32:05;21.48;;;19.83;;
25932;SDS011;13731;51.166;4.474;2023-12-04T08:34:31;22.85;;;21.35;;
25932;SDS011;13731;51.166;4.474;2023-12-04T08:36:57;24.33;;;22.52;;
25932;SDS011;13731;51.166;4.474;2023-12-04T08:39:23;20.95;;;19.27;;
25932;SDS011;13731;51.166;4.474;2023-12-04T08:41:50;21.83;;;20.25;;
25932;SDS011;13731;51.166;4.474;2023-12-04T08:44:16;22.42;;;20.90;;
25932;SDS011;13731;51.166;4.474;2023-12-04T08:46:43;20.65;;;19.15;;
25932;SDS011;13731;51.166;4.474;2023-12-04T08:49:10;21.10;;;19.70;;
25932;SDS011;13731;51.166;4.474;2023-12-04T08:51:36;22.70;;;21.15;;
25932;SDS011;13731;51.166;4.474;2023-12-04T08:54:02;23.48;;;21.58;;
25932;SDS011;13731;51.166;4.474;2023-12-04T08:56:28;24.50;;;22.92;;
25932;SDS011;13731;51.166;4.474;2023-12-04T08:58:54;24.25;;;22.17;;
25932;SDS011;13731;51.166;4.474;2023-12-04T09:01:21;23.10;;;21.48;;
25932;SDS011;13731;51.166;4.474;2023-12-04T09:03:47;23.20;;;21.60;;
25932;SDS011;13731;51.166;4.474;2023-12-04T09:06:13;23.23;;;21.73;;
25932;SDS011;13731;51.166;4.474;2023-12-04T09:08:40;22.77;;;21.25;;
25932;SDS011;13731;51.166;4.474;2023-12-04T09:11:06;23.70;;;21.95;;
25932;SDS011;13731;51.166;4.474;2023-12-04T09:13:33;21.52;;;20.02;;
25932;SDS011;13731;51.166;4.474;2023-12-04T09:15:59;24.52;;;22.95;;
25932;SDS011;13731;51.166;4.474;2023-12-04T09:18:25;23.52;;;21.75;;
25932;SDS011;13731;51.166;4.474;2023-12-04T09:20:51;22.67;;;20.95;;
25932;SDS011;13731;51.166;4.474;2023-12-04T09:23:17;25.42;;;23.50;;
25932;SDS011;13731;51.166;4.474;2023-12-04T09:25:43;22.23;;;20.80;;
25932;SDS011;13731;51.166;4.474;2023-12-04T09:28:09;22.90;;;21.20;;
25932;SDS011;13731;51.166;4.474;2023-12-04T09:30:35;23.48;;;21.85;;
25932;SDS011;13731;51.166;4.474;2023-12-04T09:33:04;23.55;;;21.98;;
25932;SDS011;13731;51.166;4.474;2023-12-04T09:35:31;24.35;;;22.63;;
25932;SDS011;13731;51.166;4.474;2023-12-04T09:37:57;22.90;;;21.23;;
25932;SDS011;13731;51.166;4.474;2023-12-04T09:40:23;25.13;;;23.50;;
25932;SDS011;13731;51.166;4.474;2023-12-04T09:42:50;22.85;;;21.05;;
25932;SDS011;13731;51.166;4.474;2023-12-04T09:45:18;23.35;;;21.67;;
25932;SDS011;13731;51.166;4.474;2023-12-04T09:47:45;24.52;;;22.92;;
25932;SDS011;13731;51.166;4.474;2023-12-04T09:50:14;23.88;;;22.35;;
25932;SDS011;13731;51.166;4.474;2023-12-04T09:52:42;25.02;;;23.40;;
25932;SDS011;13731;51.166;4.474;2023-12-04T09:55:11;24.15;;;22.58;;
25932;SDS011;13731;51.166;4.474;2023-12-04T09:57:38;26.23;;;24.58;;
25932;SDS011;13731;51.166;4.474;2023-12-04T10:00:04;27.40;;;25.58;;
25932;SDS011;13731;51.166;4.474;2023-12-04T10:02:36;27.98;;;26.08;;
25932;SDS011;13731;51.166;4.474;2023-12-04T10:05:03;24.92;;;23.15;;
25932;SDS011;13731;51.166;4.474;2023-12-04T10:07:31;27.70;;;25.83;;
25932;SDS011;13731;51.166;4.474;2023-12-04T10:09:57;30.02;;;28.13;;
25932;SDS011;13731;51.166;4.474;2023-12-04T10:12:23;27.70;;;26.00;;
25932;SDS011;13731;51.166;4.474;2023-12-04T10:15:06;25.38;;;23.45;;
25932;SDS011;13731;51.166;4.474;2023-12-04T10:17:36;21.40;;;19.67;;
25932;SDS011;13731;51.166;4.474;2023-12-04T10:20:04;21.80;;;20.30;;
25932;SDS011;13731;51.166;4.474;2023-12-04T10:22:59;22.60;;;20.92;;
25932;SDS011;13731;51.166;4.474;2023-12-04T10:25:28;24.58;;;22.67;;
25932;SDS011;13731;51.166;4.474;2023-12-04T10:28:17;31.05;;;28.95;;
25932;SDS011;13731;51.166;4.474;2023-12-04T10:30:42;31.25;;;28.88;;
25932;SDS011;13731;51.166;4.474;2023-12-04T10:33:09;32.90;;;30.80;;
25932;SDS011;13731;51.166;4.474;2023-12-04T10:35:36;29.67;;;27.58;;
25932;SDS011;13731;51.166;4.474;2023-12-04T10:38:02;36.35;;;33.85;;
25932;SDS011;13731;51.166;4.474;2023-12-04T10:40:33;43.10;;;40.53;;
25932;SDS011;13731;51.166;4.474;2023-12-04T10:45:37;35.30;;;33.17;;
25932;SDS011;13731;51.166;4.474;2023-12-04T10:48:05;40.00;;;37.58;;
25932;SDS011;13731;51.166;4.474;2023-12-04T10:50:32;38.80;;;36.38;;
25932;SDS011;13731;51.166;4.474;2023-12-04T10:53:04;38.47;;;36.05;;
25932;SDS011;13731;51.166;4.474;2023-12-04T10:55:31;33.90;;;31.58;;
25932;SDS011;13731;51.166;4.474;2023-12-04T10:57:58;41.72;;;39.13;;
25932;SDS011;13731;51.166;4.474;2023-12-04T11:00:29;40.97;;;38.50;;
25932;SDS011;13731;51.166;4.474;2023-12-04T11:02:59;38.10;;;35.67;;
25932;SDS011;13731;51.166;4.474;2023-12-04T11:05:38;45.15;;;42.42;;
25932;SDS011;13731;51.166;4.474;2023-12-04T11:08:05;38.75;;;36.15;;
25932;SDS011;13731;51.166;4.474;2023-12-04T11:10:35;39.28;;;36.63;;
25932;SDS011;13731;51.166;4.474;2023-12-04T11:13:28;37.75;;;35.33;;
25932;SDS011;13731;51.166;4.474;2023-12-04T11:15:56;37.88;;;34.88;;
25932;SDS011;13731;51.166;4.474;2023-12-04T11:18:31;37.08;;;34.58;;
25932;SDS011;13731;51.166;4.474;2023-12-04T11:21:04;38.85;;;36.45;;
25932;SDS011;13731;51.166;4.474;2023-12-04T11:23:34;39.53;;;37.05;;
25932;SDS011;13731;51.166;4.474;2023-12-04T11:26:00;44.88;;;42.17;;
25932;SDS011;13731;51.166;4.474;2023-12-04T11:28:29;41.53;;;39.00;;
25932;SDS011;13731;51.166;4.474;2023-12-04T11:30:56;43.00;;;40.13;;
25932;SDS011;13731;51.166;4.474;2023-12-04T11:33:23;39.80;;;37.30;;
25932;SDS011;13731;51.166;4.474;2023-12-04T11:35:50;41.03;;;38.55;;
25932;SDS011;13731;51.166;4.474;2023-12-04T11:38:16;42.40;;;39.50;;
25932;SDS011;13731;51.166;4.474;2023-12-04T11:40:45;40.03;;;37.45;;
25932;SDS011;13731;51.166;4.474;2023-12-04T11:43:24;39.75;;;37.15;;
25932;SDS011;13731;51.166;4.474;2023-12-04T11:45:51;43.30;;;40.58;;
25932;SDS011;13731;51.166;4.474;2023-12-04T11:48:22;42.25;;;39.45;;
25932;SDS011;13731;51.166;4.474;2023-12-04T11:50:51;42.28;;;39.50;;
25932;SDS011;13731;51.166;4.474;2023-12-04T11:53:18;38.45;;;36.05;;
25932;SDS011;13731;51.166;4.474;2023-12-04T11:55:44;40.85;;;38.28;;
25932;SDS011;13731;51.166;4.474;2023-12-04T11:58:11;33.83;;;31.35;;
25932;SDS011;13731;51.166;4.474;2023-12-04T12:00:37;37.72;;;35.30;;
25932;SDS011;13731;51.166;4.474;2023-12-04T12:03:05;35.50;;;32.85;;
25932;SDS011;13731;51.166;4.474;2023-12-04T12:05:35;41.75;;;38.75;;
25932;SDS011;13731;51.166;4.474;2023-12-04T12:10:30;31.67;;;29.17;;
25932;SDS011;13731;51.166;4.474;2023-12-04T12:12:57;40.00;;;37.05;;
25932;SDS011;13731;51.166;4.474;2023-12-04T12:15:24;40.75;;;37.95;;
25932;SDS011;13731;51.166;4.474;2023-12-04T12:17:50;43.58;;;40.47;;
25932;SDS011;13731;51.166;4.474;2023-12-04T12:20:18;37.63;;;35.22;;
25932;SDS011;13731;51.166;4.474;2023-12-04T12:25:14;33.58;;;31.17;;
25932;SDS011;13731;51.166;4.474;2023-12-04T12:27:40;36.50;;;34.22;;
25932;SDS011;13731;51.166;4.474;2023-12-04T12:30:08;38.63;;;36.15;;
25932;SDS011;13731;51.166;4.474;2023-12-04T12:32:35;34.28;;;31.48;;
25932;SDS011;13731;51.166;4.474;2023-12-04T12:35:04;38.10;;;35.53;;
25932;SDS011;13731;51.166;4.474;2023-12-04T12:37:33;36.05;;;33.65;;
25932;SDS011;13731;51.166;4.474;2023-12-04T12:40:00;40.60;;;37.80;;
25932;SDS011;13731;51.166;4.474;2023-12-04T12:42:27;40.50;;;37.65;;
25932;SDS011;13731;51.166;4.474;2023-12-04T12:44:53;39.20;;;36.55;;
25932;SDS011;13731;51.166;4.474;2023-12-04T12:47:23;38.55;;;36.08;;
25932;SDS011;13731;51.166;4.474;2023-12-04T12:49:49;40.85;;;38.42;;
25932;SDS011;13731;51.166;4.474;2023-12-04T12:52:15;40.22;;;37.50;;
25932;SDS011;13731;51.166;4.474;2023-12-04T12:54:41;40.45;;;37.60;;
25932;SDS011;13731;51.166;4.474;2023-12-04T12:57:08;43.25;;;40.40;;
25932;SDS011;13731;51.166;4.474;2023-12-04T12:59:35;39.83;;;37.17;;
25932;SDS011;13731;51.166;4.474;2023-12-04T13:02:01;34.97;;;32.53;;
25932;SDS011;13731;51.166;4.474;2023-12-04T13:04:33;35.13;;;32.72;;
25932;SDS011;13731;51.166;4.474;2023-12-04T13:07:00;38.55;;;35.58;;
25932;SDS011;13731;51.166;4.474;2023-12-04T13:09:28;43.63;;;40.72;;
25932;SDS011;13731;51.166;4.474;2023-12-04T13:11:54;42.92;;;40.00;;
25932;SDS011;13731;51.166;4.474;2023-12-04T13:14:20;45.40;;;42.50;;
25932;SDS011;13731;51.166;4.474;2023-12-04T13:16:46;39.50;;;36.70;;
25932;SDS011;13731;51.166;4.474;2023-12-04T13:19:12;39.70;;;36.92;;
25932;SDS011;13731;51.166;4.474;2023-12-04T13:21:38;43.95;;;40.80;;
25932;SDS011;13731;51.166;4.474;2023-12-04T13:24:04;41.10;;;38.50;;
25932;SDS011;13731;51.166;4.474;2023-12-04T13:26:34;44.85;;;42.08;;
25932;SDS011;13731;51.166;4.474;2023-12-04T13:29:00;42.97;;;40.25;;
25932;SDS011;13731;51.166;4.474;2023-12-04T13:31:26;33.42;;;30.83;;
25932;SDS011;13731;51.166;4.474;2023-12-04T13:33:53;33.08;;;30.85;;
25932;SDS011;13731;51.166;4.474;2023-12-04T13:36:19;31.88;;;29.40;;
25932;SDS011;13731;51.166;4.474;2023-12-04T13:38:45;40.10;;;37.25;;
25932;SDS011;13731;51.166;4.474;2023-12-04T13:41:11;47.13;;;43.83;;
25932;SDS011;13731;51.166;4.474;2023-12-04T13:43:55;38.88;;;36.00;;
25932;SDS011;13731;51.166;4.474;2023-12-04T13:46:24;59.13;;;54.88;;
25932;SDS011;13731;51.166;4.474;2023-12-04T13:48:55;52.40;;;48.33;;
25932;SDS011;13731;51.166;4.474;2023-12-04T13:51:22;82.90;;;77.78;;
25932;SDS011;13731;51.166;4.474;2023-12-04T13:53:48;55.40;;;51.83;;
25932;SDS011;13731;51.166;4.474;2023-12-04T13:56:15;61.38;;;57.30;;
25932;SDS011;13731;51.166;4.474;2023-12-04T13:59:07;61.30;;;57.53;;
25932;SDS011;13731;51.166;4.474;2023-12-04T14:01:33;60.53;;;56.53;;
25932;SDS011;13731;51.166;4.474;2023-12-04T14:03:59;59.10;;;55.38;;
25932;SDS011;13731;51.166;4.474;2023-12-04T14:06:30;56.63;;;52.75;;
25932;SDS011;13731;51.166;4.474;2023-12-04T14:08:56;55.90;;;52.05;;
25932;SDS011;13731;51.166;4.474;2023-12-04T14:11:23;75.20;;;70.53;;
25932;SDS011;13731;51.166;4.474;2023-12-04T14:13:52;69.18;;;64.47;;
25932;SDS011;13731;51.166;4.474;2023-12-04T14:16:18;88.68;;;83.20;;
25932;SDS011;13731;51.166;4.474;2023-12-04T14:18:44;74.53;;;70.22;;
25932;SDS011;13731;51.166;4.474;2023-12-04T14:21:10;78.85;;;74.18;;
25932;SDS011;13731;51.166;4.474;2023-12-04T14:23:37;75.47;;;70.88;;
25932;SDS011;13731;51.166;4.474;2023-12-04T14:26:03;72.05;;;67.93;;
25932;SDS011;13731;51.166;4.474;2023-12-04T14:28:29;81.30;;;76.32;;
25932;SDS011;13731;51.166;4.474;2023-12-04T14:30:55;81.05;;;76.35;;
25932;SDS011;13731;51.166;4.474;2023-12-04T14:33:21;75.75;;;71.45;;